sensor_id;sensor_type;location;lat;lon;timestamp;P1;durP1;ratioP1;P2;durP2;ratioP2
12135;SDS011;6131;56.420;15.548;2022-09-09T00:02:16;3.50;;;1.37;;
12135;SDS011;6131;56.420;15.548;2022-09-09T00:04:45;5.40;;;1.50;;
12135;SDS011;6131;56.420;15.548;2022-09-09T00:09:45;3.43;;;1.50;;
12135;SDS011;6131;56.420;15.548;2022-09-09T00:12:19;3.90;;;1.63;;
12135;SDS011;6131;56.420;15.548;2022-09-09T00:15:00;3.10;;;1.30;;
12135;SDS011;6131;56.420;15.548;2022-09-09T00:17:35;3.50;;;1.40;;
12135;SDS011;6131;56.420;15.548;2022-09-09T00:28:16;3.03;;;1.57;;
12135;SDS011;6131;56.420;15.548;2022-09-09T00:30:43;3.27;;;1.47;;
12135;SDS011;6131;56.420;15.548;2022-09-09T00:33:13;4.67;;;1.70;;
12135;SDS011;6131;56.420;15.548;2022-09-09T00:35:50;3.70;;;1.40;;
12135;SDS011;6131;56.420;15.548;2022-09-09T00:38:18;5.20;;;1.90;;
12135;SDS011;6131;56.420;15.548;2022-09-09T00:43:28;4.43;;;1.80;;
12135;SDS011;6131;56.420;15.548;2022-09-09T00:48:34;2.97;;;1.40;;
12135;SDS011;6131;56.420;15.548;2022-09-09T00:51:13;5.13;;;1.70;;
12135;SDS011;6131;56.420;15.548;2022-09-09T00:56:20;3.20;;;1.60;;
12135;SDS011;6131;56.420;15.548;2022-09-09T00:58:57;3.87;;;1.70;;
12135;SDS011;6131;56.420;15.548;2022-09-09T01:04:31;2.63;;;1.67;;
12135;SDS011;6131;56.420;15.548;2022-09-09T01:07:03;2.83;;;1.47;;
12135;SDS011;6131;56.420;15.548;2022-09-09T01:12:15;5.53;;;1.80;;
12135;SDS011;6131;56.420;15.548;2022-09-09T01:27:31;6.47;;;1.60;;
12135;SDS011;6131;56.420;15.548;2022-09-09T01:29:58;3.40;;;1.80;;
12135;SDS011;6131;56.420;15.548;2022-09-09T01:32:44;4.53;;;1.70;;
12135;SDS011;6131;56.420;15.548;2022-09-09T01:35:12;3.83;;;1.63;;
12135;SDS011;6131;56.420;15.548;2022-09-09T01:37:40;8.63;;;2.07;;
12135;SDS011;6131;56.420;15.548;2022-09-09T01:40:07;6.33;;;1.90;;
12135;SDS011;6131;56.420;15.548;2022-09-09T01:42:33;3.47;;;1.80;;
12135;SDS011;6131;56.420;15.548;2022-09-09T01:44:59;2.33;;;1.63;;
12135;SDS011;6131;56.420;15.548;2022-09-09T01:47:25;5.37;;;1.70;;
12135;SDS011;6131;56.420;15.548;2022-09-09T01:49:51;5.87;;;1.80;;
12135;SDS011;6131;56.420;15.548;2022-09-09T01:52:17;4.83;;;1.90;;
12135;SDS011;6131;56.420;15.548;2022-09-09T01:54:43;5.07;;;2.20;;
12135;SDS011;6131;56.420;15.548;2022-09-09T02:04:38;5.00;;;2.13;;
12135;SDS011;6131;56.420;15.548;2022-09-09T02:07:06;4.07;;;1.90;;
12135;SDS011;6131;56.420;15.548;2022-09-09T02:09:35;4.97;;;2.10;;
12135;SDS011;6131;56.420;15.548;2022-09-09T02:12:05;4.97;;;1.83;;
12135;SDS011;6131;56.420;15.548;2022-09-09T02:14:36;4.40;;;1.93;;
12135;SDS011;6131;56.420;15.548;2022-09-09T02:17:07;5.63;;;1.83;;
12135;SDS011;6131;56.420;15.548;2022-09-09T02:19:39;5.57;;;1.87;;
12135;SDS011;6131;56.420;15.548;2022-09-09T02:22:06;5.77;;;1.80;;
12135;SDS011;6131;56.420;15.548;2022-09-09T02:24:35;4.63;;;1.97;;
12135;SDS011;6131;56.420;15.548;2022-09-09T02:27:02;3.40;;;1.73;;
12135;SDS011;6131;56.420;15.548;2022-09-09T02:29:31;4.50;;;1.47;;
12135;SDS011;6131;56.420;15.548;2022-09-09T02:31:59;7.23;;;1.90;;
12135;SDS011;6131;56.420;15.548;2022-09-09T02:34:28;6.27;;;2.07;;
12135;SDS011;6131;56.420;15.548;2022-09-09T02:36:54;3.30;;;2.00;;
12135;SDS011;6131;56.420;15.548;2022-09-09T02:39:21;4.03;;;2.07;;
12135;SDS011;6131;56.420;15.548;2022-09-09T02:41:47;5.83;;;2.20;;
12135;SDS011;6131;56.420;15.548;2022-09-09T02:44:14;8.23;;;2.40;;
12135;SDS011;6131;56.420;15.548;2022-09-09T02:52:06;4.50;;;1.90;;
12135;SDS011;6131;56.420;15.548;2022-09-09T02:54:33;5.77;;;2.10;;
12135;SDS011;6131;56.420;15.548;2022-09-09T02:57:06;4.33;;;1.70;;
12135;SDS011;6131;56.420;15.548;2022-09-09T02:59:34;4.40;;;1.80;;
12135;SDS011;6131;56.420;15.548;2022-09-09T03:02:00;5.13;;;1.80;;
12135;SDS011;6131;56.420;15.548;2022-09-09T03:04:26;4.63;;;1.80;;
12135;SDS011;6131;56.420;15.548;2022-09-09T03:06:52;3.87;;;1.80;;
12135;SDS011;6131;56.420;15.548;2022-09-09T03:09:18;5.17;;;2.07;;
12135;SDS011;6131;56.420;15.548;2022-09-09T03:11:44;4.73;;;2.03;;
12135;SDS011;6131;56.420;15.548;2022-09-09T03:14:10;5.10;;;1.70;;
12135;SDS011;6131;56.420;15.548;2022-09-09T03:16:36;4.33;;;1.80;;
12135;SDS011;6131;56.420;15.548;2022-09-09T03:19:02;4.50;;;2.00;;
12135;SDS011;6131;56.420;15.548;2022-09-09T03:21:28;6.73;;;1.97;;
12135;SDS011;6131;56.420;15.548;2022-09-09T03:23:54;5.37;;;1.87;;
12135;SDS011;6131;56.420;15.548;2022-09-09T03:26:22;3.67;;;1.70;;
12135;SDS011;6131;56.420;15.548;2022-09-09T03:28:48;5.67;;;1.97;;
12135;SDS011;6131;56.420;15.548;2022-09-09T03:31:16;5.83;;;1.80;;
12135;SDS011;6131;56.420;15.548;2022-09-09T03:33:44;4.43;;;2.20;;
12135;SDS011;6131;56.420;15.548;2022-09-09T03:36:10;5.97;;;1.80;;
12135;SDS011;6131;56.420;15.548;2022-09-09T03:38:36;5.60;;;2.00;;
12135;SDS011;6131;56.420;15.548;2022-09-09T03:41:02;4.30;;;1.83;;
12135;SDS011;6131;56.420;15.548;2022-09-09T03:43:31;4.43;;;2.07;;
12135;SDS011;6131;56.420;15.548;2022-09-09T03:45:57;4.90;;;2.00;;
12135;SDS011;6131;56.420;15.548;2022-09-09T03:48:23;5.93;;;1.87;;
12135;SDS011;6131;56.420;15.548;2022-09-09T03:50:51;4.30;;;1.90;;
12135;SDS011;6131;56.420;15.548;2022-09-09T03:53:20;5.03;;;1.70;;
12135;SDS011;6131;56.420;15.548;2022-09-09T03:55:47;5.50;;;1.67;;
12135;SDS011;6131;56.420;15.548;2022-09-09T03:58:13;3.77;;;2.33;;
12135;SDS011;6131;56.420;15.548;2022-09-09T04:00:39;3.97;;;2.00;;
12135;SDS011;6131;56.420;15.548;2022-09-09T04:03:09;5.93;;;2.40;;
12135;SDS011;6131;56.420;15.548;2022-09-09T04:05:35;8.40;;;2.30;;
12135;SDS011;6131;56.420;15.548;2022-09-09T04:08:07;5.13;;;1.97;;
12135;SDS011;6131;56.420;15.548;2022-09-09T04:10:33;5.10;;;2.10;;
12135;SDS011;6131;56.420;15.548;2022-09-09T04:13:01;5.77;;;2.20;;
12135;SDS011;6131;56.420;15.548;2022-09-09T04:15:27;5.67;;;2.37;;
12135;SDS011;6131;56.420;15.548;2022-09-09T04:17:53;4.87;;;2.10;;
12135;SDS011;6131;56.420;15.548;2022-09-09T04:20:20;4.03;;;2.00;;
12135;SDS011;6131;56.420;15.548;2022-09-09T04:22:47;6.20;;;2.33;;
12135;SDS011;6131;56.420;15.548;2022-09-09T04:25:13;6.40;;;2.20;;
12135;SDS011;6131;56.420;15.548;2022-09-09T04:27:39;6.07;;;2.43;;
12135;SDS011;6131;56.420;15.548;2022-09-09T04:30:05;6.10;;;2.40;;
12135;SDS011;6131;56.420;15.548;2022-09-09T04:32:33;4.53;;;1.97;;
12135;SDS011;6131;56.420;15.548;2022-09-09T04:34:59;5.53;;;2.13;;
12135;SDS011;6131;56.420;15.548;2022-09-09T04:37:25;7.53;;;1.97;;
12135;SDS011;6131;56.420;15.548;2022-09-09T04:39:51;5.20;;;2.13;;
12135;SDS011;6131;56.420;15.548;2022-09-09T04:42:16;5.57;;;2.20;;
12135;SDS011;6131;56.420;15.548;2022-09-09T04:44:44;5.47;;;2.27;;
12135;SDS011;6131;56.420;15.548;2022-09-09T04:47:10;8.03;;;2.47;;
12135;SDS011;6131;56.420;15.548;2022-09-09T04:49:36;6.93;;;2.30;;
12135;SDS011;6131;56.420;15.548;2022-09-09T04:52:03;5.33;;;2.20;;
12135;SDS011;6131;56.420;15.548;2022-09-09T04:54:29;4.90;;;2.23;;
12135;SDS011;6131;56.420;15.548;2022-09-09T04:56:55;5.80;;;2.00;;
12135;SDS011;6131;56.420;15.548;2022-09-09T04:59:21;6.87;;;2.20;;
12135;SDS011;6131;56.420;15.548;2022-09-09T05:01:48;8.43;;;2.30;;
12135;SDS011;6131;56.420;15.548;2022-09-09T05:04:15;7.77;;;2.17;;
12135;SDS011;6131;56.420;15.548;2022-09-09T05:06:41;3.80;;;2.40;;
12135;SDS011;6131;56.420;15.548;2022-09-09T05:09:07;5.40;;;1.93;;
12135;SDS011;6131;56.420;15.548;2022-09-09T05:11:33;4.87;;;1.87;;
12135;SDS011;6131;56.420;15.548;2022-09-09T05:14:01;5.90;;;2.20;;
12135;SDS011;6131;56.420;15.548;2022-09-09T05:16:28;4.93;;;1.70;;
12135;SDS011;6131;56.420;15.548;2022-09-09T05:18:54;3.40;;;1.80;;
12135;SDS011;6131;56.420;15.548;2022-09-09T05:21:21;7.17;;;2.13;;
12135;SDS011;6131;56.420;15.548;2022-09-09T05:23:48;6.20;;;2.20;;
12135;SDS011;6131;56.420;15.548;2022-09-09T05:26:15;5.77;;;2.17;;
12135;SDS011;6131;56.420;15.548;2022-09-09T05:28:41;6.53;;;2.40;;
12135;SDS011;6131;56.420;15.548;2022-09-09T05:31:08;7.33;;;2.37;;
12135;SDS011;6131;56.420;15.548;2022-09-09T05:33:37;5.63;;;2.00;;
12135;SDS011;6131;56.420;15.548;2022-09-09T05:36:06;9.10;;;2.40;;
12135;SDS011;6131;56.420;15.548;2022-09-09T05:38:32;6.03;;;1.83;;
12135;SDS011;6131;56.420;15.548;2022-09-09T05:40:59;6.53;;;2.30;;
12135;SDS011;6131;56.420;15.548;2022-09-09T05:43:25;5.90;;;2.47;;
12135;SDS011;6131;56.420;15.548;2022-09-09T05:46:02;5.37;;;2.03;;
12135;SDS011;6131;56.420;15.548;2022-09-09T05:48:33;5.23;;;2.00;;
12135;SDS011;6131;56.420;15.548;2022-09-09T05:50:59;7.70;;;2.30;;
12135;SDS011;6131;56.420;15.548;2022-09-09T05:53:26;8.17;;;2.20;;
12135;SDS011;6131;56.420;15.548;2022-09-09T05:56:00;5.93;;;2.20;;
12135;SDS011;6131;56.420;15.548;2022-09-09T05:58:28;6.30;;;2.30;;
12135;SDS011;6131;56.420;15.548;2022-09-09T06:00:59;4.07;;;2.10;;
12135;SDS011;6131;56.420;15.548;2022-09-09T06:03:26;4.13;;;1.77;;
12135;SDS011;6131;56.420;15.548;2022-09-09T06:05:58;5.63;;;2.10;;
12135;SDS011;6131;56.420;15.548;2022-09-09T06:08:25;6.87;;;2.10;;
12135;SDS011;6131;56.420;15.548;2022-09-09T06:10:51;4.47;;;2.07;;
12135;SDS011;6131;56.420;15.548;2022-09-09T06:13:17;4.60;;;2.03;;
12135;SDS011;6131;56.420;15.548;2022-09-09T06:15:52;5.30;;;2.23;;
12135;SDS011;6131;56.420;15.548;2022-09-09T06:18:18;5.07;;;2.17;;
12135;SDS011;6131;56.420;15.548;2022-09-09T06:20:57;4.67;;;2.27;;
12135;SDS011;6131;56.420;15.548;2022-09-09T06:23:24;4.63;;;2.33;;
12135;SDS011;6131;56.420;15.548;2022-09-09T06:25:51;8.33;;;2.40;;
12135;SDS011;6131;56.420;15.548;2022-09-09T06:28:17;5.07;;;2.13;;
12135;SDS011;6131;56.420;15.548;2022-09-09T06:30:44;6.20;;;2.37;;
12135;SDS011;6131;56.420;15.548;2022-09-09T06:33:10;7.93;;;2.40;;
12135;SDS011;6131;56.420;15.548;2022-09-09T06:35:36;5.83;;;2.37;;
12135;SDS011;6131;56.420;15.548;2022-09-09T06:38:02;3.97;;;1.97;;
12135;SDS011;6131;56.420;15.548;2022-09-09T06:40:28;4.60;;;2.27;;
12135;SDS011;6131;56.420;15.548;2022-09-09T06:42:58;6.43;;;2.30;;
12135;SDS011;6131;56.420;15.548;2022-09-09T06:45:25;6.57;;;2.50;;
12135;SDS011;6131;56.420;15.548;2022-09-09T06:47:51;7.80;;;2.37;;
12135;SDS011;6131;56.420;15.548;2022-09-09T06:50:20;5.27;;;2.30;;
12135;SDS011;6131;56.420;15.548;2022-09-09T06:52:46;3.77;;;1.73;;
12135;SDS011;6131;56.420;15.548;2022-09-09T06:55:15;4.83;;;2.30;;
12135;SDS011;6131;56.420;15.548;2022-09-09T06:57:42;6.53;;;2.60;;
12135;SDS011;6131;56.420;15.548;2022-09-09T07:00:09;4.63;;;1.87;;
12135;SDS011;6131;56.420;15.548;2022-09-09T07:02:36;3.47;;;2.33;;
12135;SDS011;6131;56.420;15.548;2022-09-09T07:05:04;5.10;;;2.50;;
12135;SDS011;6131;56.420;15.548;2022-09-09T07:07:30;7.80;;;2.27;;
12135;SDS011;6131;56.420;15.548;2022-09-09T07:09:56;5.10;;;2.07;;
12135;SDS011;6131;56.420;15.548;2022-09-09T07:12:22;5.27;;;2.10;;
12135;SDS011;6131;56.420;15.548;2022-09-09T07:14:48;8.67;;;2.40;;
12135;SDS011;6131;56.420;15.548;2022-09-09T07:17:14;3.93;;;2.07;;
12135;SDS011;6131;56.420;15.548;2022-09-09T07:19:40;6.70;;;2.50;;
12135;SDS011;6131;56.420;15.548;2022-09-09T07:22:06;5.40;;;2.40;;
12135;SDS011;6131;56.420;15.548;2022-09-09T07:24:32;5.43;;;2.30;;
12135;SDS011;6131;56.420;15.548;2022-09-09T07:26:58;5.03;;;2.33;;
12135;SDS011;6131;56.420;15.548;2022-09-09T07:29:24;6.47;;;2.77;;
12135;SDS011;6131;56.420;15.548;2022-09-09T07:31:50;4.50;;;2.70;;
12135;SDS011;6131;56.420;15.548;2022-09-09T07:34:16;4.93;;;2.50;;
12135;SDS011;6131;56.420;15.548;2022-09-09T07:36:43;8.93;;;2.60;;
12135;SDS011;6131;56.420;15.548;2022-09-09T07:39:10;5.00;;;2.67;;
12135;SDS011;6131;56.420;15.548;2022-09-09T07:41:41;6.90;;;2.80;;
12135;SDS011;6131;56.420;15.548;2022-09-09T07:44:09;4.97;;;2.50;;
12135;SDS011;6131;56.420;15.548;2022-09-09T07:46:36;5.67;;;2.40;;
12135;SDS011;6131;56.420;15.548;2022-09-09T07:49:03;5.57;;;2.50;;
12135;SDS011;6131;56.420;15.548;2022-09-09T07:51:34;5.90;;;3.00;;
12135;SDS011;6131;56.420;15.548;2022-09-09T07:54:02;3.60;;;2.30;;
12135;SDS011;6131;56.420;15.548;2022-09-09T07:56:29;6.60;;;2.80;;
12135;SDS011;6131;56.420;15.548;2022-09-09T07:58:56;6.03;;;2.80;;
12135;SDS011;6131;56.420;15.548;2022-09-09T08:01:26;8.87;;;2.97;;
12135;SDS011;6131;56.420;15.548;2022-09-09T08:03:59;7.13;;;2.80;;
12135;SDS011;6131;56.420;15.548;2022-09-09T08:06:26;6.40;;;2.60;;
12135;SDS011;6131;56.420;15.548;2022-09-09T08:08:53;10.30;;;3.00;;
12135;SDS011;6131;56.420;15.548;2022-09-09T08:11:20;6.47;;;2.70;;
12135;SDS011;6131;56.420;15.548;2022-09-09T08:13:47;5.10;;;3.00;;
12135;SDS011;6131;56.420;15.548;2022-09-09T08:16:15;5.30;;;2.70;;
12135;SDS011;6131;56.420;15.548;2022-09-09T08:18:41;6.10;;;2.57;;
12135;SDS011;6131;56.420;15.548;2022-09-09T08:21:11;5.13;;;2.37;;
12135;SDS011;6131;56.420;15.548;2022-09-09T08:23:41;5.77;;;3.00;;
12135;SDS011;6131;56.420;15.548;2022-09-09T08:26:14;8.10;;;2.73;;
12135;SDS011;6131;56.420;15.548;2022-09-09T08:28:41;4.67;;;2.80;;
12135;SDS011;6131;56.420;15.548;2022-09-09T08:31:08;11.10;;;3.27;;
12135;SDS011;6131;56.420;15.548;2022-09-09T08:33:35;6.47;;;2.77;;
12135;SDS011;6131;56.420;15.548;2022-09-09T08:36:03;7.97;;;2.83;;
12135;SDS011;6131;56.420;15.548;2022-09-09T08:38:29;5.97;;;2.80;;
12135;SDS011;6131;56.420;15.548;2022-09-09T08:40:57;9.03;;;3.20;;
12135;SDS011;6131;56.420;15.548;2022-09-09T08:43:26;6.30;;;2.87;;
12135;SDS011;6131;56.420;15.548;2022-09-09T08:45:58;6.97;;;3.00;;
12135;SDS011;6131;56.420;15.548;2022-09-09T08:48:35;6.40;;;2.93;;
12135;SDS011;6131;56.420;15.548;2022-09-09T08:51:06;4.53;;;2.67;;
12135;SDS011;6131;56.420;15.548;2022-09-09T08:53:43;3.57;;;2.67;;
12135;SDS011;6131;56.420;15.548;2022-09-09T08:56:11;4.73;;;2.70;;
12135;SDS011;6131;56.420;15.548;2022-09-09T08:58:42;4.73;;;2.70;;
12135;SDS011;6131;56.420;15.548;2022-09-09T09:01:14;4.97;;;2.80;;
12135;SDS011;6131;56.420;15.548;2022-09-09T09:03:48;5.27;;;2.77;;
12135;SDS011;6131;56.420;15.548;2022-09-09T09:09:02;5.17;;;3.10;;
12135;SDS011;6131;56.420;15.548;2022-09-09T09:11:38;7.70;;;3.77;;
12135;SDS011;6131;56.420;15.548;2022-09-09T09:14:09;5.53;;;3.50;;
12135;SDS011;6131;56.420;15.548;2022-09-09T09:19:21;5.23;;;3.00;;
12135;SDS011;6131;56.420;15.548;2022-09-09T09:22:36;5.63;;;3.10;;
12135;SDS011;6131;56.420;15.548;2022-09-09T09:27:00;9.53;;;3.67;;
12135;SDS011;6131;56.420;15.548;2022-09-09T09:29:32;6.83;;;3.57;;
12135;SDS011;6131;56.420;15.548;2022-09-09T09:32:00;6.27;;;3.10;;
12135;SDS011;6131;56.420;15.548;2022-09-09T09:34:27;6.03;;;3.57;;
12135;SDS011;6131;56.420;15.548;2022-09-09T09:36:54;10.27;;;3.53;;
12135;SDS011;6131;56.420;15.548;2022-09-09T09:39:23;5.37;;;3.27;;
12135;SDS011;6131;56.420;15.548;2022-09-09T09:41:49;6.67;;;3.63;;
12135;SDS011;6131;56.420;15.548;2022-09-09T09:44:28;4.87;;;3.60;;
12135;SDS011;6131;56.420;15.548;2022-09-09T09:49:55;6.43;;;3.40;;
12135;SDS011;6131;56.420;15.548;2022-09-09T09:52:24;7.63;;;3.93;;
12135;SDS011;6131;56.420;15.548;2022-09-09T09:54:51;7.40;;;3.50;;
12135;SDS011;6131;56.420;15.548;2022-09-09T09:57:18;9.13;;;3.87;;
12135;SDS011;6131;56.420;15.548;2022-09-09T09:59:49;6.17;;;3.33;;
12135;SDS011;6131;56.420;15.548;2022-09-09T10:02:31;4.83;;;2.87;;
12135;SDS011;6131;56.420;15.548;2022-09-09T10:05:16;4.93;;;3.50;;
12135;SDS011;6131;56.420;15.548;2022-09-09T10:07:43;4.87;;;3.20;;
12135;SDS011;6131;56.420;15.548;2022-09-09T10:10:19;5.87;;;3.23;;
12135;SDS011;6131;56.420;15.548;2022-09-09T10:15:21;4.00;;;3.00;;
12135;SDS011;6131;56.420;15.548;2022-09-09T10:18:35;5.53;;;3.23;;
12135;SDS011;6131;56.420;15.548;2022-09-09T10:38:47;7.67;;;3.63;;
12135;SDS011;6131;56.420;15.548;2022-09-09T10:41:18;6.50;;;3.57;;
12135;SDS011;6131;56.420;15.548;2022-09-09T10:54:31;6.80;;;3.57;;
12135;SDS011;6131;56.420;15.548;2022-09-09T10:57:03;5.20;;;3.30;;
12135;SDS011;6131;56.420;15.548;2022-09-09T10:59:34;6.20;;;3.40;;
12135;SDS011;6131;56.420;15.548;2022-09-09T11:02:11;5.10;;;3.23;;
12135;SDS011;6131;56.420;15.548;2022-09-09T11:04:42;6.47;;;3.53;;
12135;SDS011;6131;56.420;15.548;2022-09-09T11:07:11;5.33;;;3.03;;
12135;SDS011;6131;56.420;15.548;2022-09-09T11:09:41;4.77;;;2.80;;
12135;SDS011;6131;56.420;15.548;2022-09-09T11:12:10;5.87;;;3.20;;
12135;SDS011;6131;56.420;15.548;2022-09-09T11:14:45;3.67;;;2.77;;
12135;SDS011;6131;56.420;15.548;2022-09-09T11:17:14;4.60;;;2.80;;
12135;SDS011;6131;56.420;15.548;2022-09-09T11:19:42;4.23;;;2.73;;
12135;SDS011;6131;56.420;15.548;2022-09-09T11:22:21;4.00;;;2.60;;
12135;SDS011;6131;56.420;15.548;2022-09-09T11:27:24;6.73;;;2.90;;
12135;SDS011;6131;56.420;15.548;2022-09-09T11:42:47;4.80;;;2.70;;
12135;SDS011;6131;56.420;15.548;2022-09-09T11:47:56;4.63;;;2.70;;
12135;SDS011;6131;56.420;15.548;2022-09-09T11:52:48;2.73;;;2.13;;
12135;SDS011;6131;56.420;15.548;2022-09-09T11:55:30;3.73;;;2.20;;
12135;SDS011;6131;56.420;15.548;2022-09-09T12:03:08;5.13;;;2.53;;
12135;SDS011;6131;56.420;15.548;2022-09-09T12:05:52;3.60;;;2.40;;
12135;SDS011;6131;56.420;15.548;2022-09-09T12:08:21;4.53;;;2.43;;
12135;SDS011;6131;56.420;15.548;2022-09-09T12:10:54;2.93;;;2.27;;
12135;SDS011;6131;56.420;15.548;2022-09-09T12:13:22;21.50;;;2.50;;
12135;SDS011;6131;56.420;15.548;2022-09-09T12:15:49;3.10;;;2.07;;
12135;SDS011;6131;56.420;15.548;2022-09-09T12:18:24;3.07;;;2.40;;
12135;SDS011;6131;56.420;15.548;2022-09-09T12:20:52;3.03;;;2.37;;
12135;SDS011;6131;56.420;15.548;2022-09-09T12:31:33;3.13;;;2.27;;
12135;SDS011;6131;56.420;15.548;2022-09-09T12:34:44;3.10;;;2.13;;
12135;SDS011;6131;56.420;15.548;2022-09-09T12:36:53;5.03;;;2.77;;
12135;SDS011;6131;56.420;15.548;2022-09-09T12:39:44;2.93;;;2.20;;
12135;SDS011;6131;56.420;15.548;2022-09-09T12:42:21;5.90;;;2.40;;
12135;SDS011;6131;56.420;15.548;2022-09-09T12:44:51;4.33;;;2.30;;
12135;SDS011;6131;56.420;15.548;2022-09-09T12:47:17;4.63;;;2.40;;
12135;SDS011;6131;56.420;15.548;2022-09-09T12:49:45;2.67;;;2.10;;
12135;SDS011;6131;56.420;15.548;2022-09-09T12:52:17;4.97;;;2.43;;
12135;SDS011;6131;56.420;15.548;2022-09-09T12:54:46;2.57;;;2.20;;
12135;SDS011;6131;56.420;15.548;2022-09-09T12:57:13;2.90;;;2.33;;
12135;SDS011;6131;56.420;15.548;2022-09-09T12:59:40;3.70;;;2.03;;
12135;SDS011;6131;56.420;15.548;2022-09-09T13:02:23;3.77;;;2.10;;
12135;SDS011;6131;56.420;15.548;2022-09-09T13:04:50;4.90;;;2.10;;
12135;SDS011;6131;56.420;15.548;2022-09-09T13:07:17;4.33;;;2.30;;
12135;SDS011;6131;56.420;15.548;2022-09-09T13:09:44;5.60;;;2.20;;
12135;SDS011;6131;56.420;15.548;2022-09-09T13:12:13;5.17;;;2.40;;
12135;SDS011;6131;56.420;15.548;2022-09-09T13:14:40;5.20;;;2.53;;
12135;SDS011;6131;56.420;15.548;2022-09-09T13:17:17;3.73;;;2.20;;
12135;SDS011;6131;56.420;15.548;2022-09-09T13:19:44;4.03;;;2.47;;
12135;SDS011;6131;56.420;15.548;2022-09-09T13:22:12;4.07;;;2.40;;
12135;SDS011;6131;56.420;15.548;2022-09-09T13:24:38;6.43;;;2.50;;
12135;SDS011;6131;56.420;15.548;2022-09-09T13:27:20;5.30;;;2.50;;
12135;SDS011;6131;56.420;15.548;2022-09-09T13:29:52;3.77;;;2.43;;
12135;SDS011;6131;56.420;15.548;2022-09-09T13:32:22;4.43;;;2.30;;
12135;SDS011;6131;56.420;15.548;2022-09-09T13:34:52;5.30;;;2.27;;
12135;SDS011;6131;56.420;15.548;2022-09-09T13:37:23;4.63;;;2.20;;
12135;SDS011;6131;56.420;15.548;2022-09-09T13:39:51;4.07;;;2.03;;
12135;SDS011;6131;56.420;15.548;2022-09-09T13:42:28;3.33;;;1.87;;
12135;SDS011;6131;56.420;15.548;2022-09-09T13:44:55;6.90;;;2.00;;
12135;SDS011;6131;56.420;15.548;2022-09-09T13:47:26;2.70;;;2.10;;
12135;SDS011;6131;56.420;15.548;2022-09-09T13:49:52;4.40;;;2.27;;
12135;SDS011;6131;56.420;15.548;2022-09-09T13:52:19;4.57;;;2.30;;
12135;SDS011;6131;56.420;15.548;2022-09-09T13:54:47;3.63;;;2.13;;
12135;SDS011;6131;56.420;15.548;2022-09-09T13:57:20;2.80;;;1.90;;
12135;SDS011;6131;56.420;15.548;2022-09-09T13:59:47;2.60;;;2.00;;
12135;SDS011;6131;56.420;15.548;2022-09-09T14:02:13;3.57;;;2.00;;
12135;SDS011;6131;56.420;15.548;2022-09-09T14:04:39;3.37;;;2.00;;
12135;SDS011;6131;56.420;15.548;2022-09-09T14:07:08;3.57;;;2.00;;
12135;SDS011;6131;56.420;15.548;2022-09-09T14:09:34;3.80;;;1.80;;
12135;SDS011;6131;56.420;15.548;2022-09-09T14:12:01;4.03;;;2.03;;
12135;SDS011;6131;56.420;15.548;2022-09-09T14:14:27;4.73;;;2.00;;
12135;SDS011;6131;56.420;15.548;2022-09-09T14:16:53;2.67;;;2.10;;
12135;SDS011;6131;56.420;15.548;2022-09-09T14:19:19;3.60;;;2.07;;
12135;SDS011;6131;56.420;15.548;2022-09-09T14:21:45;2.43;;;1.70;;
12135;SDS011;6131;56.420;15.548;2022-09-09T14:24:11;2.77;;;1.90;;
12135;SDS011;6131;56.420;15.548;2022-09-09T14:26:37;2.93;;;2.10;;
12135;SDS011;6131;56.420;15.548;2022-09-09T14:29:03;2.37;;;1.97;;
12135;SDS011;6131;56.420;15.548;2022-09-09T14:31:29;4.77;;;2.30;;
12135;SDS011;6131;56.420;15.548;2022-09-09T14:33:55;5.37;;;2.53;;
12135;SDS011;6131;56.420;15.548;2022-09-09T14:36:21;2.60;;;2.00;;
12135;SDS011;6131;56.420;15.548;2022-09-09T14:38:49;3.17;;;2.00;;
12135;SDS011;6131;56.420;15.548;2022-09-09T14:41:16;4.60;;;2.07;;
12135;SDS011;6131;56.420;15.548;2022-09-09T14:43:42;3.50;;;1.97;;
12135;SDS011;6131;56.420;15.548;2022-09-09T14:46:09;3.60;;;2.20;;
12135;SDS011;6131;56.420;15.548;2022-09-09T14:48:36;5.37;;;2.10;;
12135;SDS011;6131;56.420;15.548;2022-09-09T14:51:04;5.70;;;2.27;;
12135;SDS011;6131;56.420;15.548;2022-09-09T14:53:30;3.70;;;1.97;;
12135;SDS011;6131;56.420;15.548;2022-09-09T14:56:10;3.87;;;2.00;;
12135;SDS011;6131;56.420;15.548;2022-09-09T14:58:36;3.90;;;2.00;;
12135;SDS011;6131;56.420;15.548;2022-09-09T15:01:07;2.73;;;2.00;;
12135;SDS011;6131;56.420;15.548;2022-09-09T15:03:35;3.77;;;2.10;;
12135;SDS011;6131;56.420;15.548;2022-09-09T15:06:05;3.37;;;1.93;;
12135;SDS011;6131;56.420;15.548;2022-09-09T15:08:33;3.80;;;2.10;;
12135;SDS011;6131;56.420;15.548;2022-09-09T15:11:00;1.87;;;1.57;;
12135;SDS011;6131;56.420;15.548;2022-09-09T15:13:26;2.23;;;1.73;;
12135;SDS011;6131;56.420;15.548;2022-09-09T15:15:53;1.77;;;1.50;;
12135;SDS011;6131;56.420;15.548;2022-09-09T15:18:19;3.33;;;2.03;;
12135;SDS011;6131;56.420;15.548;2022-09-09T15:20:45;2.43;;;1.70;;
12135;SDS011;6131;56.420;15.548;2022-09-09T15:23:11;3.20;;;2.93;;
12135;SDS011;6131;56.420;15.548;2022-09-09T15:25:37;4.60;;;4.20;;
12135;SDS011;6131;56.420;15.548;2022-09-09T15:28:03;4.43;;;4.03;;
12135;SDS011;6131;56.420;15.548;2022-09-09T15:30:29;3.57;;;2.97;;
12135;SDS011;6131;56.420;15.548;2022-09-09T15:32:55;3.60;;;2.80;;
12135;SDS011;6131;56.420;15.548;2022-09-09T15:35:21;3.37;;;3.00;;
12135;SDS011;6131;56.420;15.548;2022-09-09T15:37:47;5.17;;;2.30;;
12135;SDS011;6131;56.420;15.548;2022-09-09T15:40:13;5.70;;;2.50;;
12135;SDS011;6131;56.420;15.548;2022-09-09T15:42:39;3.07;;;2.03;;
12135;SDS011;6131;56.420;15.548;2022-09-09T15:45:05;4.67;;;2.03;;
12135;SDS011;6131;56.420;15.548;2022-09-09T15:47:31;2.80;;;1.97;;
12135;SDS011;6131;56.420;15.548;2022-09-09T15:49:58;3.43;;;1.83;;
12135;SDS011;6131;56.420;15.548;2022-09-09T15:52:24;4.03;;;2.40;;
12135;SDS011;6131;56.420;15.548;2022-09-09T15:54:50;3.27;;;2.63;;
12135;SDS011;6131;56.420;15.548;2022-09-09T15:57:16;3.07;;;2.30;;
12135;SDS011;6131;56.420;15.548;2022-09-09T15:59:42;2.23;;;2.03;;
12135;SDS011;6131;56.420;15.548;2022-09-09T16:02:10;6.57;;;2.70;;
12135;SDS011;6131;56.420;15.548;2022-09-09T16:04:36;5.77;;;2.50;;
12135;SDS011;6131;56.420;15.548;2022-09-09T16:07:03;3.27;;;2.43;;
12135;SDS011;6131;56.420;15.548;2022-09-09T16:09:29;5.50;;;2.20;;
12135;SDS011;6131;56.420;15.548;2022-09-09T16:11:59;3.67;;;2.60;;
12135;SDS011;6131;56.420;15.548;2022-09-09T16:14:26;4.10;;;2.60;;
12135;SDS011;6131;56.420;15.548;2022-09-09T16:16:52;4.10;;;2.43;;
12135;SDS011;6131;56.420;15.548;2022-09-09T16:19:18;3.07;;;2.13;;
12135;SDS011;6131;56.420;15.548;2022-09-09T16:21:45;5.10;;;2.27;;
12135;SDS011;6131;56.420;15.548;2022-09-09T16:24:12;2.87;;;2.00;;
12135;SDS011;6131;56.420;15.548;2022-09-09T16:26:40;3.23;;;1.97;;
12135;SDS011;6131;56.420;15.548;2022-09-09T16:29:09;2.80;;;2.07;;
12135;SDS011;6131;56.420;15.548;2022-09-09T16:31:35;2.30;;;1.77;;
12135;SDS011;6131;56.420;15.548;2022-09-09T16:34:02;2.97;;;2.03;;
12135;SDS011;6131;56.420;15.548;2022-09-09T16:36:29;2.73;;;1.87;;
12135;SDS011;6131;56.420;15.548;2022-09-09T16:38:59;2.33;;;2.00;;
12135;SDS011;6131;56.420;15.548;2022-09-09T16:41:26;4.57;;;2.13;;
12135;SDS011;6131;56.420;15.548;2022-09-09T16:43:53;2.37;;;2.10;;
12135;SDS011;6131;56.420;15.548;2022-09-09T16:46:20;4.50;;;1.97;;
12135;SDS011;6131;56.420;15.548;2022-09-09T16:48:46;3.47;;;2.17;;
12135;SDS011;6131;56.420;15.548;2022-09-09T16:51:18;4.63;;;2.10;;
12135;SDS011;6131;56.420;15.548;2022-09-09T16:53:44;2.67;;;2.00;;
12135;SDS011;6131;56.420;15.548;2022-09-09T16:56:11;3.47;;;2.33;;
12135;SDS011;6131;56.420;15.548;2022-09-09T16:58:38;4.93;;;2.40;;
12135;SDS011;6131;56.420;15.548;2022-09-09T17:01:04;2.27;;;2.07;;
12135;SDS011;6131;56.420;15.548;2022-09-09T17:03:31;6.23;;;2.70;;